Airfield :







YOU CAN JOIN US ON...

 
LOGIN :

Register | Disclaimer

   EN    FR    IT 

 









Legend :    VFR   Marginal VFR   IFR   Intensive IFR   Very Intensive IFR
Visi :
Ceiling :
>= 8 km
>= 3000ft
5 to 8 km
1000 to 3000 ft
1500m to 5 km
500 to 1000 ft
800 to 1500m
200 to 500 ft
< 800m
< 200 ft
Symbols :   Thunderstorms  Fog  Heavy snow  Heavy precipitations  Wind > 20 kt







- Airport Elevation : 244 ft
- IATA code : YQB


CYQB - Quebec - Jean Lesage Int.

CURRENT METAR :
  • 202000Z 25013G19KT 30SM FEW040 SCT160 BKN260 31/21 A2963 RMK CU2AC1CI3 SLP034 DENSITY ALT 2500FT

EXPIRED METARs :
  • 201900Z 24009KT 30SM FEW040 BKN260 31/22 A2964 RMK CU2CI3 SLP037 DENSITY ALT 2500FT
  • 201800Z 23011KT 30SM FEW035 SCT160 BKN240 30/21 A2967 RMK CU2AC1CI4 HAZY SLP048 DENSITY ALT 2400FT

TAF TAF CYQB
Valid from the 20 at 18:00 until the 21 at 18:00 UTC


201738Z 2018/2118 26010KT P6SM SCT040
FM210300 26012KT P6SM SKC
BECMG 2103/2105 26007KT
FM210900 VRB03KT P6SM BKN120
FM211200 04005KT P6SM -SHRA SCT012 BKN040
BECMG 2116/2118 09008KT RMK NXT FCST BY 210000Z
ATIS : ENG : +1 418-871-6893 FRA : +1 418-871-6895
CZUL FIR / North America



MET'MAP, your aeronautical weather chart ! - Copyright ORBIFLY December 2007 - Disclaimer

ORBIFLY MET'MAP TEAM :

Programming & Development : Alexandra Zaïnal
Concept & Development : Baudouin d'Aumeries
Co-Development & Prog : Marc-Olivier Méhu
Technical & hardware support : Manuel Goepfert

Contact : metmap@orbifly.com




SOURCES & CREDITS :

   NOAA